createdAt,value
2022-12-20T00:01:49.389Z,36.90
2022-12-20T00:04:16.963Z,36.17
2022-12-20T00:06:44.220Z,37.83
2022-12-20T00:09:12.372Z,37.73
2022-12-20T00:11:41.990Z,37.33
2022-12-20T00:14:10.801Z,36.87
2022-12-20T00:16:38.912Z,39.83
2022-12-20T00:19:08.076Z,33.63
2022-12-20T00:21:36.504Z,35.53
2022-12-20T00:24:06.444Z,36.20
2022-12-20T00:26:35.867Z,35.57
2022-12-20T00:29:03.880Z,36.77
2022-12-20T00:31:32.216Z,35.03
2022-12-20T00:34:01.436Z,35.77
2022-12-20T00:36:31.631Z,35.93
2022-12-20T00:39:00.666Z,34.53
2022-12-20T00:41:32.379Z,34.10
2022-12-20T00:44:02.000Z,37.93
2022-12-20T00:46:31.767Z,36.00
2022-12-20T00:48:59.573Z,37.10
2022-12-20T00:51:30.144Z,39.17
2022-12-20T00:53:57.653Z,36.20
2022-12-20T00:56:25.759Z,33.20
2022-12-20T00:58:54.640Z,32.23
2022-12-20T01:01:30.728Z,30.83
2022-12-20T01:03:59.406Z,34.17
2022-12-20T01:06:27.666Z,33.73
2022-12-20T01:08:56.686Z,33.20
2022-12-20T01:11:39.147Z,33.57
2022-12-20T01:14:15.440Z,35.30
2022-12-20T01:16:48.379Z,38.43
2022-12-20T01:19:18.648Z,37.10
2022-12-20T01:21:46.424Z,34.87
2022-12-20T01:24:22.794Z,32.17
2022-12-20T01:26:50.197Z,32.80
2022-12-20T01:29:17.779Z,33.03
2022-12-20T01:31:45.555Z,33.30
2022-12-20T01:34:13.185Z,32.97
2022-12-20T01:36:40.507Z,36.03
2022-12-20T01:39:17.707Z,34.73
2022-12-20T01:41:47.285Z,41.45
2022-12-20T01:44:17.906Z,41.37
2022-12-20T01:46:50.673Z,44.08
2022-12-20T01:49:46.763Z,39.17
2022-12-20T01:52:23.744Z,36.17
2022-12-20T01:55:02.404Z,37.43
2022-12-20T01:57:49.631Z,39.00
2022-12-20T02:00:18.497Z,37.13
2022-12-20T02:02:50.821Z,36.27
2022-12-20T02:05:22.983Z,38.07
2022-12-20T02:07:56.811Z,35.83
2022-12-20T02:10:42.407Z,42.07
2022-12-20T02:13:25.060Z,38.83
2022-12-20T02:15:58.132Z,37.00
2022-12-20T02:18:55.161Z,39.73
2022-12-20T02:21:49.966Z,35.60
2022-12-20T02:25:13.501Z,38.70
2022-12-20T02:28:00.458Z,38.03
2022-12-20T02:30:38.124Z,37.00
2022-12-20T02:33:13.292Z,36.53
2022-12-20T02:35:42.674Z,33.33
2022-12-20T02:38:34.797Z,39.13
2022-12-20T02:41:16.406Z,34.97
2022-12-20T02:44:07.453Z,38.13
2022-12-20T02:46:37.201Z,38.27
2022-12-20T02:49:18.718Z,34.93
2022-12-20T02:51:52.576Z,35.10
2022-12-20T02:54:21.095Z,34.27
2022-12-20T02:57:00.494Z,37.37
2022-12-20T02:59:56.684Z,40.37
2022-12-20T03:02:25.956Z,38.30
2022-12-20T03:04:56.906Z,37.50
2022-12-20T03:07:24.151Z,37.80
2022-12-20T03:09:51.816Z,34.70
2022-12-20T03:12:19.113Z,36.67
2022-12-20T03:14:46.686Z,32.23
2022-12-20T03:17:14.284Z,39.67
2022-12-20T03:19:41.909Z,39.67
2022-12-20T03:22:09.191Z,36.10
2022-12-20T03:24:36.949Z,36.87
2022-12-20T03:27:04.266Z,33.90
2022-12-20T03:29:32.157Z,40.27
2022-12-20T03:31:59.365Z,37.30
2022-12-20T03:34:26.989Z,34.43
2022-12-20T03:36:54.295Z,39.10
2022-12-20T03:39:23.073Z,37.00
2022-12-20T03:41:50.751Z,41.73
2022-12-20T03:44:18.368Z,43.10
2022-12-20T03:46:45.751Z,36.53
2022-12-20T03:49:13.422Z,33.73
2022-12-20T03:51:40.715Z,37.73
2022-12-20T03:54:08.293Z,38.77
2022-12-20T03:56:35.777Z,39.20
2022-12-20T03:59:03.481Z,37.77
2022-12-20T04:01:36.809Z,41.23
2022-12-20T04:04:05.856Z,40.33
2022-12-20T04:06:33.121Z,39.97
2022-12-20T04:09:00.612Z,38.07
2022-12-20T04:11:27.940Z,40.63
2022-12-20T04:13:55.684Z,38.90
2022-12-20T04:16:29.714Z,40.00
2022-12-20T04:18:57.452Z,41.13
2022-12-20T04:21:31.883Z,41.50
2022-12-20T04:24:02.216Z,45.33
2022-12-20T04:26:29.821Z,41.13
2022-12-20T04:28:57.586Z,43.63
2022-12-20T04:31:25.257Z,38.70
2022-12-20T04:33:53.067Z,40.07
2022-12-20T04:36:21.110Z,45.33
2022-12-20T04:38:48.817Z,42.67
2022-12-20T04:41:22.774Z,42.70
2022-12-20T04:43:53.922Z,51.47
2022-12-20T04:46:23.018Z,52.13
2022-12-20T04:48:59.603Z,48.40
2022-12-20T04:51:28.633Z,48.50
2022-12-20T04:53:56.608Z,52.30
2022-12-20T04:56:29.442Z,49.73
2022-12-20T04:58:59.261Z,47.27
2022-12-20T05:01:27.255Z,48.77
2022-12-20T05:03:55.334Z,53.50
2022-12-20T05:06:22.678Z,58.10
2022-12-20T05:08:50.257Z,49.93
2022-12-20T05:11:17.854Z,50.73
2022-12-20T05:13:45.365Z,48.80
2022-12-20T05:16:12.684Z,41.83
2022-12-20T05:18:46.517Z,46.37
2022-12-20T05:21:35.142Z,45.50
2022-12-20T05:24:21.136Z,47.27
2022-12-20T05:26:48.430Z,43.07
2022-12-20T05:29:17.008Z,46.30
2022-12-20T05:31:44.386Z,40.20
2022-12-20T05:34:11.938Z,42.93
2022-12-20T05:36:39.248Z,40.90
2022-12-20T05:39:06.947Z,42.40
2022-12-20T05:41:34.238Z,40.27
2022-12-20T05:44:02.063Z,42.33
2022-12-20T05:46:29.334Z,42.70
2022-12-20T05:48:56.921Z,44.80
2022-12-20T05:51:24.782Z,43.22
2022-12-20T05:53:52.400Z,45.33
2022-12-20T05:56:19.632Z,49.10
2022-12-20T05:58:47.168Z,53.33
2022-12-20T06:01:14.735Z,49.00
2022-12-20T06:03:42.348Z,52.20
2022-12-20T06:06:14.593Z,46.60
2022-12-20T06:08:43.060Z,46.83
2022-12-20T06:11:10.563Z,47.80
2022-12-20T06:13:38.117Z,49.80
2022-12-20T06:16:05.695Z,49.40
2022-12-20T06:18:33.487Z,50.73
2022-12-20T06:21:00.801Z,48.47
2022-12-20T06:23:28.401Z,50.13
2022-12-20T06:25:55.795Z,51.57
2022-12-20T06:28:23.437Z,48.00
2022-12-20T06:30:58.509Z,45.80
2022-12-20T06:33:26.268Z,49.97
2022-12-20T06:35:53.741Z,50.80
2022-12-20T06:38:21.247Z,46.47
2022-12-20T06:40:48.501Z,47.57
2022-12-20T06:43:16.525Z,47.00
2022-12-20T06:45:43.871Z,50.23
2022-12-20T06:48:12.180Z,48.50
2022-12-20T06:50:40.156Z,48.97
2022-12-20T06:53:07.700Z,48.07
2022-12-20T06:55:35.269Z,50.47
2022-12-20T06:58:04.287Z,49.17
2022-12-20T07:00:31.882Z,52.13
2022-12-20T07:02:59.883Z,48.67
2022-12-20T07:05:27.631Z,50.43
2022-12-20T07:07:55.224Z,49.83
2022-12-20T07:10:22.478Z,49.17
2022-12-20T07:12:50.277Z,52.70
2022-12-20T07:15:17.628Z,50.85
2022-12-20T07:17:45.390Z,48.40
2022-12-20T07:20:14.047Z,49.70
2022-12-20T07:22:42.568Z,53.20
2022-12-20T07:25:11.516Z,54.47
2022-12-20T07:27:39.229Z,47.25
2022-12-20T07:30:07.515Z,50.37
2022-12-20T07:32:35.112Z,48.13
2022-12-20T07:35:02.439Z,49.90
2022-12-20T07:37:30.294Z,50.70
2022-12-20T07:39:57.601Z,45.73
2022-12-20T07:42:30.322Z,55.03
2022-12-20T07:45:02.927Z,53.13
2022-12-20T07:47:30.502Z,52.50
2022-12-20T07:49:57.700Z,48.90
2022-12-20T07:52:29.725Z,46.83
2022-12-20T07:55:04.170Z,50.47
2022-12-20T07:57:46.540Z,52.23
2022-12-20T08:00:15.168Z,45.85
2022-12-20T08:03:01.053Z,48.75
2022-12-20T08:05:29.260Z,55.80
2022-12-20T08:08:00.203Z,51.25
2022-12-20T08:10:28.997Z,48.45
2022-12-20T08:12:58.534Z,50.67
2022-12-20T08:15:28.766Z,50.23
2022-12-20T08:17:56.330Z,48.70
2022-12-20T08:20:23.763Z,45.55
2022-12-20T08:22:51.269Z,47.70
2022-12-20T08:25:18.947Z,49.97
2022-12-20T08:27:46.503Z,48.57
2022-12-20T08:30:14.496Z,47.95
2022-12-20T08:32:42.118Z,47.33
2022-12-20T08:35:09.559Z,46.57
2022-12-20T08:37:37.181Z,54.60
2022-12-20T08:40:05.199Z,47.90
2022-12-20T08:42:32.888Z,43.93
2022-12-20T08:45:00.161Z,43.67
2022-12-20T08:47:30.544Z,41.45
2022-12-20T08:49:57.834Z,44.20
2022-12-20T08:52:25.357Z,43.35
2022-12-20T08:54:52.897Z,44.72
2022-12-20T08:57:20.361Z,39.65
2022-12-20T08:59:47.890Z,44.33
2022-12-20T09:02:15.554Z,42.42
2022-12-20T09:04:44.571Z,41.65
2022-12-20T09:07:12.264Z,44.78
2022-12-20T09:09:39.572Z,40.92
2022-12-20T09:12:07.835Z,37.63
2022-12-20T09:14:35.176Z,37.20
2022-12-20T09:17:02.726Z,43.67
2022-12-20T09:19:31.231Z,41.70
2022-12-20T09:21:58.857Z,43.50
2022-12-20T09:24:26.197Z,37.92
2022-12-20T09:26:53.882Z,39.13
2022-12-20T09:29:28.304Z,46.88
2022-12-20T09:31:57.312Z,42.20
2022-12-20T09:34:24.664Z,42.50
2022-12-20T09:36:53.014Z,43.78
2022-12-20T09:39:20.324Z,44.85
2022-12-20T09:41:48.395Z,39.60
2022-12-20T09:44:32.168Z,42.88
2022-12-20T09:47:10.487Z,40.65
2022-12-20T09:49:45.924Z,37.55
2022-12-20T09:53:00.280Z,35.25
2022-12-20T09:55:47.508Z,39.03
2022-12-20T09:58:23.969Z,39.33
2022-12-20T10:00:54.387Z,43.22
2022-12-20T10:03:35.838Z,39.22
2022-12-20T10:06:47.803Z,40.30
2022-12-20T10:09:30.276Z,38.55
2022-12-20T10:12:09.837Z,35.92
2022-12-20T10:14:45.950Z,42.10
2022-12-20T10:17:32.227Z,37.72
2022-12-20T10:20:00.903Z,38.95
2022-12-20T10:22:46.996Z,40.20
2022-12-20T10:25:28.918Z,40.88
2022-12-20T10:27:57.626Z,42.55
2022-12-20T10:30:29.114Z,39.65
2022-12-20T10:32:58.883Z,38.67
2022-12-20T10:35:29.310Z,39.03
2022-12-20T10:38:12.899Z,40.38
2022-12-20T10:41:19.459Z,46.72
2022-12-20T10:43:46.309Z,41.25
2022-12-20T10:46:19.173Z,41.53
2022-12-20T10:48:49.100Z,42.15
2022-12-20T10:51:22.708Z,43.33
2022-12-20T10:54:20.173Z,48.13
2022-12-20T10:56:59.317Z,45.65
2022-12-20T10:59:37.895Z,44.30
2022-12-20T11:02:39.527Z,43.35
2022-12-20T11:05:11.498Z,43.38
2022-12-20T11:08:34.094Z,43.60
2022-12-20T11:11:23.998Z,41.35
2022-12-20T11:13:52.831Z,42.72
2022-12-20T11:16:39.107Z,37.50
2022-12-20T11:19:18.914Z,42.25
2022-12-20T11:22:24.130Z,45.75
2022-12-20T11:25:19.190Z,45.80
2022-12-20T11:28:12.526Z,39.20
2022-12-20T11:31:13.883Z,38.55
2022-12-20T11:34:03.478Z,41.05
2022-12-20T11:37:07.316Z,33.45
2022-12-20T11:39:53.381Z,35.42
2022-12-20T11:43:00.807Z,36.85
2022-12-20T11:46:01.944Z,40.10
2022-12-20T11:48:59.097Z,40.17
2022-12-20T11:51:48.422Z,42.50
2022-12-20T11:54:28.840Z,38.13
2022-12-20T11:57:26.655Z,38.35
2022-12-20T12:00:00.287Z,35.78
2022-12-20T12:02:42.222Z,42.28
2022-12-20T12:05:34.010Z,38.10
2022-12-20T12:08:17.979Z,48.58
2022-12-20T12:11:06.488Z,43.42
2022-12-20T12:13:40.314Z,43.53
2022-12-20T12:16:28.357Z,44.03
2022-12-20T12:18:59.631Z,45.78
2022-12-20T12:21:37.886Z,44.70
2022-12-20T12:24:29.280Z,46.03
2022-12-20T12:27:00.121Z,47.67
2022-12-20T12:29:31.018Z,43.42
2022-12-20T12:32:14.948Z,42.00
2022-12-20T12:35:15.860Z,43.58
2022-12-20T12:38:24.374Z,44.58
2022-12-20T12:41:34.509Z,44.80
2022-12-20T12:44:25.905Z,49.65
2022-12-20T12:47:41.897Z,46.05
2022-12-20T12:50:23.366Z,45.95
2022-12-20T12:52:55.993Z,47.63
2022-12-20T12:55:44.771Z,44.85
2022-12-20T12:58:24.003Z,47.20
2022-12-20T13:01:01.521Z,50.53
2022-12-20T13:03:43.850Z,51.03
2022-12-20T13:06:23.682Z,47.55
2022-12-20T13:09:20.280Z,44.08
2022-12-20T13:11:53.729Z,43.72
2022-12-20T13:14:29.627Z,54.70
2022-12-20T13:17:12.361Z,47.63
2022-12-20T13:19:55.109Z,48.45
2022-12-20T13:22:24.834Z,47.83
2022-12-20T13:25:04.215Z,46.70
2022-12-20T13:27:41.755Z,45.78
2022-12-20T13:30:14.943Z,44.45
2022-12-20T13:32:48.694Z,47.90
2022-12-20T13:35:25.406Z,45.55
2022-12-20T13:38:12.411Z,49.38
2022-12-20T13:40:46.080Z,51.08
2022-12-20T13:43:22.620Z,47.65
2022-12-20T13:45:55.280Z,49.90
2022-12-20T13:48:33.718Z,53.60
2022-12-20T13:51:02.563Z,49.45
2022-12-20T13:53:31.450Z,48.92
2022-12-20T13:55:58.827Z,45.03
2022-12-20T13:58:34.473Z,48.42
2022-12-20T14:01:11.697Z,45.92
2022-12-20T14:03:48.135Z,48.45
2022-12-20T14:06:26.104Z,48.83
2022-12-20T14:08:54.686Z,49.33
2022-12-20T14:11:27.704Z,47.40
2022-12-20T14:14:00.030Z,47.20
2022-12-20T14:16:30.448Z,50.83
2022-12-20T14:19:05.199Z,50.33
2022-12-20T14:21:40.288Z,51.22
2022-12-20T14:24:17.830Z,51.03
2022-12-20T14:26:52.775Z,52.25
2022-12-20T14:29:30.183Z,48.00
2022-12-20T14:31:57.530Z,54.00
2022-12-20T14:34:36.722Z,52.72
2022-12-20T14:37:29.064Z,55.10
2022-12-20T14:40:18.068Z,55.45
2022-12-20T14:42:46.015Z,51.92
2022-12-20T14:45:13.751Z,49.50
2022-12-20T14:48:12.633Z,53.65
2022-12-20T14:50:41.018Z,57.95
2022-12-20T14:53:29.983Z,54.25
2022-12-20T14:55:58.042Z,55.72
2022-12-20T14:58:35.155Z,56.30
2022-12-20T15:01:22.271Z,56.95
2022-12-20T15:03:58.680Z,54.55
2022-12-20T15:06:48.348Z,53.50
2022-12-20T15:09:16.864Z,56.53
2022-12-20T15:11:46.622Z,60.05
2022-12-20T15:14:40.914Z,63.65
2022-12-20T15:17:15.828Z,58.80
2022-12-20T15:19:44.061Z,60.20
2022-12-20T15:22:19.015Z,59.33
2022-12-20T15:24:46.341Z,52.97
2022-12-20T15:27:16.978Z,54.70
2022-12-20T15:29:44.424Z,54.40
2022-12-20T15:32:31.024Z,50.08
2022-12-20T15:34:58.435Z,52.47
2022-12-20T15:37:26.015Z,54.83
2022-12-20T15:39:53.253Z,49.33
2022-12-20T15:42:23.068Z,56.67
2022-12-20T15:44:50.870Z,55.60
2022-12-20T15:47:18.498Z,54.95
2022-12-20T15:49:50.268Z,53.03
2022-12-20T15:52:24.154Z,53.92
2022-12-20T15:54:51.661Z,51.80
2022-12-20T15:57:19.298Z,54.10
2022-12-20T16:00:03.685Z,53.45
2022-12-20T16:02:33.531Z,52.03
2022-12-20T16:05:01.775Z,56.45
2022-12-20T16:07:29.576Z,50.78
2022-12-20T16:09:57.049Z,55.38
2022-12-20T16:12:33.342Z,50.92
2022-12-20T16:15:00.689Z,53.17
2022-12-20T16:17:28.332Z,57.47
2022-12-20T16:19:55.752Z,62.05
2022-12-20T16:22:25.029Z,55.63
2022-12-20T16:24:52.542Z,59.38
2022-12-20T16:27:20.598Z,59.15
2022-12-20T16:29:47.947Z,61.42
2022-12-20T16:32:24.363Z,64.47
2022-12-20T16:34:52.702Z,70.90
2022-12-20T16:37:20.803Z,63.08
2022-12-20T16:39:48.864Z,61.88
2022-12-20T16:42:22.405Z,60.88
2022-12-20T16:44:54.492Z,65.45
2022-12-20T16:47:22.671Z,68.15
2022-12-20T16:49:53.349Z,63.90
2022-12-20T16:52:23.212Z,65.13
2022-12-20T16:54:51.371Z,66.25
2022-12-20T16:57:21.426Z,70.53
2022-12-20T16:59:49.120Z,65.85
2022-12-20T17:02:28.746Z,64.57
2022-12-20T17:04:56.746Z,67.00
2022-12-20T17:07:24.894Z,66.25
2022-12-20T17:10:11.399Z,63.40
2022-12-20T17:12:39.045Z,62.97
2022-12-20T17:15:11.045Z,70.35
2022-12-20T17:17:38.625Z,63.47
2022-12-20T17:20:06.862Z,67.97
2022-12-20T17:22:34.531Z,64.82
2022-12-20T17:25:01.877Z,61.17
2022-12-20T17:27:29.482Z,69.83
2022-12-20T17:29:56.875Z,67.77
2022-12-20T17:32:26.196Z,65.53
2022-12-20T17:34:54.472Z,65.17
2022-12-20T17:37:22.269Z,69.35
2022-12-20T17:39:49.634Z,59.47
2022-12-20T17:42:17.614Z,66.68
2022-12-20T17:44:46.477Z,62.80
2022-12-20T17:47:14.296Z,59.15
2022-12-20T17:49:41.552Z,62.55
2022-12-20T17:52:15.905Z,63.78
2022-12-20T17:54:43.320Z,62.43
2022-12-20T17:57:15.567Z,68.43
2022-12-20T17:59:43.491Z,65.03
2022-12-20T18:02:29.321Z,70.78
2022-12-20T18:04:56.944Z,76.40
2022-12-20T18:07:24.706Z,86.93
2022-12-20T18:09:52.041Z,74.40
2022-12-20T18:12:19.667Z,77.25
2022-12-20T18:14:49.966Z,74.37
2022-12-20T18:17:17.756Z,70.03
2022-12-20T18:19:45.713Z,71.28
2022-12-20T18:22:14.691Z,74.93
2022-12-20T18:24:42.122Z,71.60
2022-12-20T18:27:09.989Z,68.40
2022-12-20T18:29:37.394Z,67.25
2022-12-20T18:32:05.656Z,74.27
2022-12-20T18:34:33.044Z,66.77
2022-12-20T18:37:01.978Z,62.60
2022-12-20T18:39:30.544Z,67.05
2022-12-20T18:41:58.235Z,69.15
2022-12-20T18:44:25.613Z,67.35
2022-12-20T18:46:53.811Z,69.28
2022-12-20T18:49:21.648Z,65.97
2022-12-20T18:51:49.624Z,64.07
2022-12-20T18:54:17.029Z,71.32
2022-12-20T18:56:44.604Z,69.18
2022-12-20T18:59:13.076Z,69.35
2022-12-20T19:01:42.546Z,73.18
2022-12-20T19:04:11.378Z,65.18
2022-12-20T19:06:39.369Z,59.40
2022-12-20T19:09:10.753Z,65.93
2022-12-20T19:11:38.906Z,61.38
2022-12-20T19:14:07.906Z,64.27
2022-12-20T19:16:37.039Z,63.53
2022-12-20T19:19:04.659Z,60.17
2022-12-20T19:21:35.638Z,64.00
2022-12-20T19:24:07.074Z,63.33
2022-12-20T19:26:37.759Z,62.03
2022-12-20T19:29:06.692Z,64.70
2022-12-20T19:31:37.702Z,67.57
2022-12-20T19:34:12.685Z,66.65
2022-12-20T19:36:46.005Z,75.45
2022-12-20T19:39:20.119Z,68.30
2022-12-20T19:42:15.552Z,69.27
2022-12-20T19:44:35.841Z,67.83
2022-12-20T19:47:06.443Z,63.28
2022-12-20T19:49:36.105Z,65.77
2022-12-20T19:52:05.988Z,63.27
2022-12-20T19:54:34.166Z,64.20
2022-12-20T19:57:02.084Z,70.03
2022-12-20T19:59:30.849Z,63.30
2022-12-20T20:01:58.788Z,68.47
2022-12-20T20:04:26.808Z,73.83
2022-12-20T20:06:56.425Z,71.70
2022-12-20T20:09:23.772Z,70.97
2022-12-20T20:11:51.819Z,57.90
2022-12-20T20:14:19.102Z,65.67
2022-12-20T20:16:46.713Z,64.70
2022-12-20T20:19:14.070Z,63.53
2022-12-20T20:21:42.014Z,66.10
2022-12-20T20:24:09.895Z,64.60
2022-12-20T20:26:37.849Z,62.97
2022-12-20T20:29:07.068Z,61.10
2022-12-20T20:31:34.781Z,63.07
2022-12-20T20:34:03.294Z,65.13
2022-12-20T20:36:31.027Z,61.75
2022-12-20T20:38:58.301Z,63.13
2022-12-20T20:41:25.985Z,58.90
2022-12-20T20:43:53.386Z,65.93
2022-12-20T20:46:21.081Z,62.35
2022-12-20T20:48:48.416Z,62.37
2022-12-20T20:51:16.157Z,57.93
2022-12-20T20:53:43.739Z,59.13
2022-12-20T20:56:12.262Z,62.27
2022-12-20T20:58:39.666Z,59.73
2022-12-20T21:01:11.377Z,61.27
2022-12-20T21:03:40.293Z,63.63
2022-12-20T21:08:56.406Z,58.20
2022-12-20T21:11:30.212Z,59.17
2022-12-20T21:13:58.249Z,59.00
2022-12-20T21:16:26.309Z,59.65
2022-12-20T21:18:58.822Z,61.53
2022-12-20T21:21:27.247Z,65.13
2022-12-20T21:23:55.774Z,58.40
2022-12-20T21:26:25.573Z,58.07
2022-12-20T21:29:01.123Z,56.97
2022-12-20T21:31:29.248Z,60.93
2022-12-20T21:33:57.203Z,60.67
2022-12-20T21:36:25.401Z,63.90
2022-12-20T21:38:56.374Z,63.58
2022-12-20T21:41:28.221Z,66.55
2022-12-20T21:43:58.438Z,56.67
2022-12-20T21:46:29.564Z,54.47
2022-12-20T21:48:57.031Z,58.15
2022-12-20T21:51:27.254Z,58.30
2022-12-20T21:54:00.872Z,61.05
2022-12-20T21:56:31.775Z,61.90
2022-12-20T21:58:59.633Z,59.67
2022-12-20T22:01:29.931Z,60.70
2022-12-20T22:04:04.087Z,63.73
2022-12-20T22:06:32.498Z,63.37
2022-12-20T22:09:02.221Z,55.30
2022-12-20T22:11:29.812Z,59.00
2022-12-20T22:13:58.006Z,61.13
2022-12-20T22:16:30.322Z,66.37
2022-12-20T22:18:59.677Z,57.40
2022-12-20T22:21:33.699Z,72.10
2022-12-20T22:24:02.176Z,69.70
2022-12-20T22:26:33.328Z,64.88
2022-12-20T22:29:06.493Z,62.13
2022-12-20T22:31:35.680Z,55.88
2022-12-20T22:34:03.605Z,59.53
2022-12-20T22:36:31.963Z,58.30
2022-12-20T22:38:59.537Z,58.28
2022-12-20T22:41:30.570Z,57.17
2022-12-20T22:43:59.619Z,59.43
2022-12-20T22:46:32.257Z,57.78
2022-12-20T22:49:01.580Z,64.20
2022-12-20T22:51:33.606Z,64.97
2022-12-20T22:54:01.308Z,60.75
2022-12-20T22:56:29.020Z,59.35
2022-12-20T22:58:56.613Z,55.00
2022-12-20T23:01:30.598Z,58.22
2022-12-20T23:03:58.057Z,56.08
2022-12-20T23:06:25.846Z,59.00
2022-12-20T23:08:53.262Z,56.40
2022-12-20T23:11:43.937Z,56.97
2022-12-20T23:14:39.938Z,58.87
2022-12-20T23:17:10.159Z,57.40
2022-12-20T23:19:56.810Z,57.78
2022-12-20T23:22:43.428Z,54.60
2022-12-20T23:25:16.733Z,58.83
2022-12-20T23:27:47.896Z,63.83
2022-12-20T23:30:21.879Z,57.40
2022-12-20T23:32:49.927Z,57.80
2022-12-20T23:35:20.861Z,56.42
2022-12-20T23:37:48.881Z,53.20
2022-12-20T23:40:17.494Z,52.17
2022-12-20T23:42:45.867Z,52.87
2022-12-20T23:45:13.771Z,51.03
2022-12-20T23:47:41.429Z,54.47
2022-12-20T23:50:09.407Z,61.77
2022-12-20T23:52:36.994Z,51.37
2022-12-20T23:55:05.050Z,55.73
2022-12-20T23:57:33.248Z,55.23
